sensor_id;sensor_type;location;lat;lon;timestamp;P1;durP1;ratioP1;P2;durP2;ratioP2
3527;SDS011;1778;47.966;7.854;2024-02-26T00:00:03;1.30;;;1.30;;
3527;SDS011;1778;47.966;7.854;2024-02-26T00:01:06;1.00;;;1.00;;
3527;SDS011;1778;47.966;7.854;2024-02-26T00:02:07;0.97;;;0.97;;
3527;SDS011;1778;47.966;7.854;2024-02-26T00:03:09;1.10;;;1.10;;
3527;SDS011;1778;47.966;7.854;2024-02-26T00:04:13;1.00;;;1.00;;
3527;SDS011;1778;47.966;7.854;2024-02-26T00:05:15;1.00;;;1.00;;
3527;SDS011;1778;47.966;7.854;2024-02-26T00:06:16;1.00;;;1.00;;
3527;SDS011;1778;47.966;7.854;2024-02-26T00:07:19;1.30;;;1.30;;
3527;SDS011;1778;47.966;7.854;2024-02-26T00:08:20;1.10;;;1.10;;
3527;SDS011;1778;47.966;7.854;2024-02-26T00:09:22;1.10;;;1.10;;
3527;SDS011;1778;47.966;7.854;2024-02-26T00:10:23;1.30;;;1.30;;
3527;SDS011;1778;47.966;7.854;2024-02-26T00:11:25;3.60;;;1.50;;
3527;SDS011;1778;47.966;7.854;2024-02-26T00:12:26;1.00;;;1.00;;
3527;SDS011;1778;47.966;7.854;2024-02-26T00:13:27;1.23;;;1.23;;
3527;SDS011;1778;47.966;7.854;2024-02-26T00:14:29;1.20;;;1.20;;
3527;SDS011;1778;47.966;7.854;2024-02-26T00:15:31;1.30;;;1.30;;
3527;SDS011;1778;47.966;7.854;2024-02-26T00:16:35;1.10;;;1.10;;
3527;SDS011;1778;47.966;7.854;2024-02-26T00:17:37;1.10;;;1.10;;
3527;SDS011;1778;47.966;7.854;2024-02-26T00:18:38;1.70;;;1.70;;
3527;SDS011;1778;47.966;7.854;2024-02-26T00:19:40;1.20;;;1.20;;
3527;SDS011;1778;47.966;7.854;2024-02-26T00:20:42;1.30;;;1.30;;
3527;SDS011;1778;47.966;7.854;2024-02-26T00:21:44;1.40;;;1.40;;
3527;SDS011;1778;47.966;7.854;2024-02-26T00:22:45;1.40;;;1.40;;
3527;SDS011;1778;47.966;7.854;2024-02-26T00:23:46;1.10;;;1.10;;
3527;SDS011;1778;47.966;7.854;2024-02-26T00:24:50;1.47;;;1.43;;
3527;SDS011;1778;47.966;7.854;2024-02-26T00:25:52;1.40;;;1.40;;
3527;SDS011;1778;47.966;7.854;2024-02-26T00:26:53;1.13;;;1.13;;
3527;SDS011;1778;47.966;7.854;2024-02-26T00:27:55;2.47;;;1.23;;
3527;SDS011;1778;47.966;7.854;2024-02-26T00:28:58;1.60;;;1.50;;
3527;SDS011;1778;47.966;7.854;2024-02-26T00:29:59;1.43;;;1.43;;
3527;SDS011;1778;47.966;7.854;2024-02-26T00:31:01;1.43;;;1.43;;
3527;SDS011;1778;47.966;7.854;2024-02-26T00:32:04;1.30;;;1.30;;
3527;SDS011;1778;47.966;7.854;2024-02-26T00:33:05;1.60;;;1.50;;
3527;SDS011;1778;47.966;7.854;2024-02-26T00:34:07;1.50;;;1.50;;
3527;SDS011;1778;47.966;7.854;2024-02-26T00:35:09;1.20;;;1.20;;
3527;SDS011;1778;47.966;7.854;2024-02-26T00:36:11;1.23;;;1.23;;
3527;SDS011;1778;47.966;7.854;2024-02-26T00:37:12;1.30;;;1.30;;
3527;SDS011;1778;47.966;7.854;2024-02-26T00:38:14;1.10;;;1.10;;
3527;SDS011;1778;47.966;7.854;2024-02-26T00:39:16;1.27;;;1.27;;
3527;SDS011;1778;47.966;7.854;2024-02-26T00:40:17;2.03;;;1.83;;
3527;SDS011;1778;47.966;7.854;2024-02-26T00:41:19;1.43;;;1.43;;
3527;SDS011;1778;47.966;7.854;2024-02-26T00:42:21;1.67;;;1.67;;
3527;SDS011;1778;47.966;7.854;2024-02-26T00:43:22;1.60;;;1.60;;
3527;SDS011;1778;47.966;7.854;2024-02-26T00:44:24;1.60;;;1.57;;
3527;SDS011;1778;47.966;7.854;2024-02-26T00:45:25;1.43;;;1.43;;
3527;SDS011;1778;47.966;7.854;2024-02-26T00:46:27;1.43;;;1.43;;
3527;SDS011;1778;47.966;7.854;2024-02-26T00:47:28;1.40;;;1.40;;
3527;SDS011;1778;47.966;7.854;2024-02-26T00:48:30;1.67;;;1.57;;
3527;SDS011;1778;47.966;7.854;2024-02-26T00:49:32;1.40;;;1.40;;
3527;SDS011;1778;47.966;7.854;2024-02-26T00:50:34;1.30;;;1.30;;
3527;SDS011;1778;47.966;7.854;2024-02-26T00:51:35;1.50;;;1.50;;
3527;SDS011;1778;47.966;7.854;2024-02-26T00:52:37;1.37;;;1.37;;
3527;SDS011;1778;47.966;7.854;2024-02-26T00:53:38;1.40;;;1.40;;
3527;SDS011;1778;47.966;7.854;2024-02-26T00:54:39;1.30;;;1.30;;
3527;SDS011;1778;47.966;7.854;2024-02-26T00:55:41;1.53;;;1.53;;
3527;SDS011;1778;47.966;7.854;2024-02-26T00:56:43;1.50;;;1.50;;
3527;SDS011;1778;47.966;7.854;2024-02-26T00:57:44;3.70;;;1.70;;
3527;SDS011;1778;47.966;7.854;2024-02-26T00:58:45;1.43;;;1.43;;
3527;SDS011;1778;47.966;7.854;2024-02-26T00:59:47;1.60;;;1.50;;
3527;SDS011;1778;47.966;7.854;2024-02-26T01:00:49;1.40;;;1.40;;
3527;SDS011;1778;47.966;7.854;2024-02-26T01:01:51;1.33;;;1.33;;
3527;SDS011;1778;47.966;7.854;2024-02-26T01:02:52;1.40;;;1.40;;
3527;SDS011;1778;47.966;7.854;2024-02-26T01:03:54;1.37;;;1.37;;
3527;SDS011;1778;47.966;7.854;2024-02-26T01:04:56;1.47;;;1.47;;
3527;SDS011;1778;47.966;7.854;2024-02-26T01:05:57;2.00;;;1.90;;
3527;SDS011;1778;47.966;7.854;2024-02-26T01:06:59;1.40;;;1.40;;
3527;SDS011;1778;47.966;7.854;2024-02-26T01:08:01;1.30;;;1.30;;
3527;SDS011;1778;47.966;7.854;2024-02-26T01:09:06;1.63;;;1.63;;
3527;SDS011;1778;47.966;7.854;2024-02-26T01:10:07;1.17;;;1.17;;
3527;SDS011;1778;47.966;7.854;2024-02-26T01:11:09;1.37;;;1.37;;
3527;SDS011;1778;47.966;7.854;2024-02-26T01:12:11;5.80;;;1.60;;
3527;SDS011;1778;47.966;7.854;2024-02-26T01:13:12;1.30;;;1.30;;
3527;SDS011;1778;47.966;7.854;2024-02-26T01:14:15;1.20;;;1.20;;
3527;SDS011;1778;47.966;7.854;2024-02-26T01:15:16;1.20;;;1.20;;
3527;SDS011;1778;47.966;7.854;2024-02-26T01:16:20;1.27;;;1.27;;
3527;SDS011;1778;47.966;7.854;2024-02-26T01:17:21;1.47;;;1.47;;
3527;SDS011;1778;47.966;7.854;2024-02-26T01:18:23;1.10;;;1.10;;
3527;SDS011;1778;47.966;7.854;2024-02-26T01:19:24;2.63;;;1.30;;
3527;SDS011;1778;47.966;7.854;2024-02-26T01:20:26;1.27;;;1.27;;
3527;SDS011;1778;47.966;7.854;2024-02-26T01:21:27;1.70;;;1.70;;
3527;SDS011;1778;47.966;7.854;2024-02-26T01:22:30;1.20;;;1.20;;
3527;SDS011;1778;47.966;7.854;2024-02-26T01:23:31;1.20;;;1.20;;
3527;SDS011;1778;47.966;7.854;2024-02-26T01:24:32;1.30;;;1.30;;
3527;SDS011;1778;47.966;7.854;2024-02-26T01:25:34;1.50;;;1.50;;
3527;SDS011;1778;47.966;7.854;2024-02-26T01:26:35;1.33;;;1.33;;
3527;SDS011;1778;47.966;7.854;2024-02-26T01:27:37;1.40;;;1.40;;
3527;SDS011;1778;47.966;7.854;2024-02-26T01:28:38;1.40;;;1.40;;
3527;SDS011;1778;47.966;7.854;2024-02-26T01:29:40;1.30;;;1.30;;
3527;SDS011;1778;47.966;7.854;2024-02-26T01:30:42;1.53;;;1.53;;
3527;SDS011;1778;47.966;7.854;2024-02-26T01:31:43;1.30;;;1.30;;
3527;SDS011;1778;47.966;7.854;2024-02-26T01:32:45;1.37;;;1.37;;
3527;SDS011;1778;47.966;7.854;2024-02-26T01:33:47;1.50;;;1.50;;
3527;SDS011;1778;47.966;7.854;2024-02-26T01:34:48;1.30;;;1.30;;
3527;SDS011;1778;47.966;7.854;2024-02-26T01:35:50;1.10;;;1.10;;
3527;SDS011;1778;47.966;7.854;2024-02-26T01:36:52;1.50;;;1.40;;
3527;SDS011;1778;47.966;7.854;2024-02-26T01:37:53;1.37;;;1.37;;
3527;SDS011;1778;47.966;7.854;2024-02-26T01:38:55;1.30;;;1.30;;
3527;SDS011;1778;47.966;7.854;2024-02-26T01:39:57;1.40;;;1.30;;
3527;SDS011;1778;47.966;7.854;2024-02-26T01:40:58;1.20;;;1.20;;
3527;SDS011;1778;47.966;7.854;2024-02-26T01:41:59;1.30;;;1.30;;
3527;SDS011;1778;47.966;7.854;2024-02-26T01:43:02;1.10;;;1.10;;
3527;SDS011;1778;47.966;7.854;2024-02-26T01:44:03;1.20;;;1.20;;
3527;SDS011;1778;47.966;7.854;2024-02-26T01:45:05;1.23;;;1.23;;
3527;SDS011;1778;47.966;7.854;2024-02-26T01:46:10;1.30;;;1.30;;
3527;SDS011;1778;47.966;7.854;2024-02-26T01:47:14;2.97;;;1.30;;
3527;SDS011;1778;47.966;7.854;2024-02-26T01:48:16;1.37;;;1.37;;
3527;SDS011;1778;47.966;7.854;2024-02-26T01:49:18;1.20;;;1.20;;
3527;SDS011;1778;47.966;7.854;2024-02-26T01:50:20;1.27;;;1.27;;
3527;SDS011;1778;47.966;7.854;2024-02-26T01:51:25;1.60;;;1.50;;
3527;SDS011;1778;47.966;7.854;2024-02-26T01:52:27;1.13;;;1.13;;
3527;SDS011;1778;47.966;7.854;2024-02-26T01:53:28;1.33;;;1.33;;
3527;SDS011;1778;47.966;7.854;2024-02-26T01:54:30;1.50;;;1.50;;
3527;SDS011;1778;47.966;7.854;2024-02-26T01:55:33;1.30;;;1.30;;
3527;SDS011;1778;47.966;7.854;2024-02-26T01:56:35;1.20;;;1.20;;
3527;SDS011;1778;47.966;7.854;2024-02-26T01:57:38;1.20;;;1.20;;
3527;SDS011;1778;47.966;7.854;2024-02-26T01:58:41;1.50;;;1.40;;
3527;SDS011;1778;47.966;7.854;2024-02-26T01:59:43;1.30;;;1.30;;
3527;SDS011;1778;47.966;7.854;2024-02-26T02:00:45;1.27;;;1.27;;
3527;SDS011;1778;47.966;7.854;2024-02-26T02:01:48;1.20;;;1.20;;
3527;SDS011;1778;47.966;7.854;2024-02-26T02:02:55;1.20;;;1.20;;
3527;SDS011;1778;47.966;7.854;2024-02-26T02:03:58;1.00;;;1.00;;
3527;SDS011;1778;47.966;7.854;2024-02-26T02:05:00;1.60;;;1.60;;
3527;SDS011;1778;47.966;7.854;2024-02-26T02:06:02;1.10;;;1.10;;
3527;SDS011;1778;47.966;7.854;2024-02-26T02:07:05;1.10;;;1.10;;
3527;SDS011;1778;47.966;7.854;2024-02-26T02:08:07;1.00;;;1.00;;
3527;SDS011;1778;47.966;7.854;2024-02-26T02:09:11;1.47;;;1.47;;
3527;SDS011;1778;47.966;7.854;2024-02-26T02:10:12;1.30;;;1.30;;
3527;SDS011;1778;47.966;7.854;2024-02-26T02:11:14;3.13;;;1.00;;
3527;SDS011;1778;47.966;7.854;2024-02-26T02:12:17;1.20;;;1.20;;
3527;SDS011;1778;47.966;7.854;2024-02-26T02:13:19;1.40;;;1.40;;
3527;SDS011;1778;47.966;7.854;2024-02-26T02:14:21;1.20;;;1.20;;
3527;SDS011;1778;47.966;7.854;2024-02-26T02:15:23;1.07;;;1.07;;
3527;SDS011;1778;47.966;7.854;2024-02-26T02:16:25;1.20;;;1.20;;
3527;SDS011;1778;47.966;7.854;2024-02-26T02:17:26;1.10;;;1.10;;
3527;SDS011;1778;47.966;7.854;2024-02-26T02:18:28;2.00;;;1.20;;
3527;SDS011;1778;47.966;7.854;2024-02-26T02:19:30;11.07;;;1.40;;
3527;SDS011;1778;47.966;7.854;2024-02-26T02:20:32;1.20;;;1.10;;
3527;SDS011;1778;47.966;7.854;2024-02-26T02:21:37;1.20;;;1.20;;
3527;SDS011;1778;47.966;7.854;2024-02-26T02:22:39;1.10;;;1.10;;
3527;SDS011;1778;47.966;7.854;2024-02-26T02:23:40;1.20;;;1.20;;
3527;SDS011;1778;47.966;7.854;2024-02-26T02:24:47;1.40;;;1.40;;
3527;SDS011;1778;47.966;7.854;2024-02-26T02:25:50;1.30;;;1.30;;
3527;SDS011;1778;47.966;7.854;2024-02-26T02:26:51;1.50;;;1.50;;
3527;SDS011;1778;47.966;7.854;2024-02-26T02:27:53;1.53;;;1.33;;
3527;SDS011;1778;47.966;7.854;2024-02-26T02:28:56;1.20;;;1.20;;
3527;SDS011;1778;47.966;7.854;2024-02-26T02:29:58;5.00;;;1.50;;
3527;SDS011;1778;47.966;7.854;2024-02-26T02:31:00;1.13;;;1.13;;
3527;SDS011;1778;47.966;7.854;2024-02-26T02:32:02;1.30;;;1.30;;
3527;SDS011;1778;47.966;7.854;2024-02-26T02:33:05;1.13;;;1.13;;
3527;SDS011;1778;47.966;7.854;2024-02-26T02:34:08;1.60;;;1.50;;
3527;SDS011;1778;47.966;7.854;2024-02-26T02:35:10;1.20;;;1.20;;
3527;SDS011;1778;47.966;7.854;2024-02-26T02:36:12;1.47;;;1.47;;
3527;SDS011;1778;47.966;7.854;2024-02-26T02:37:13;1.10;;;1.10;;
3527;SDS011;1778;47.966;7.854;2024-02-26T02:38:15;1.50;;;1.50;;
3527;SDS011;1778;47.966;7.854;2024-02-26T02:39:16;1.10;;;1.10;;
3527;SDS011;1778;47.966;7.854;2024-02-26T02:40:18;1.23;;;1.23;;
3527;SDS011;1778;47.966;7.854;2024-02-26T02:41:19;1.70;;;1.60;;
3527;SDS011;1778;47.966;7.854;2024-02-26T02:42:21;1.40;;;1.40;;
3527;SDS011;1778;47.966;7.854;2024-02-26T02:43:23;1.30;;;1.30;;
3527;SDS011;1778;47.966;7.854;2024-02-26T02:44:25;1.60;;;1.60;;
3527;SDS011;1778;47.966;7.854;2024-02-26T02:45:26;1.60;;;1.50;;
3527;SDS011;1778;47.966;7.854;2024-02-26T02:46:28;1.40;;;1.40;;
3527;SDS011;1778;47.966;7.854;2024-02-26T02:47:29;1.67;;;1.67;;
3527;SDS011;1778;47.966;7.854;2024-02-26T02:48:30;1.40;;;1.40;;
3527;SDS011;1778;47.966;7.854;2024-02-26T02:49:32;1.80;;;1.80;;
3527;SDS011;1778;47.966;7.854;2024-02-26T02:50:34;1.40;;;1.40;;
3527;SDS011;1778;47.966;7.854;2024-02-26T02:51:36;1.73;;;1.73;;
3527;SDS011;1778;47.966;7.854;2024-02-26T02:52:38;1.70;;;1.70;;
3527;SDS011;1778;47.966;7.854;2024-02-26T02:53:39;1.53;;;1.53;;
3527;SDS011;1778;47.966;7.854;2024-02-26T02:54:41;1.83;;;1.83;;
3527;SDS011;1778;47.966;7.854;2024-02-26T02:55:43;1.80;;;1.80;;
3527;SDS011;1778;47.966;7.854;2024-02-26T02:56:44;1.57;;;1.57;;
3527;SDS011;1778;47.966;7.854;2024-02-26T02:57:46;1.87;;;1.77;;
3527;SDS011;1778;47.966;7.854;2024-02-26T02:58:47;1.63;;;1.63;;
3527;SDS011;1778;47.966;7.854;2024-02-26T02:59:49;1.80;;;1.80;;
3527;SDS011;1778;47.966;7.854;2024-02-26T03:00:50;1.90;;;1.90;;
3527;SDS011;1778;47.966;7.854;2024-02-26T03:01:52;2.10;;;2.10;;
3527;SDS011;1778;47.966;7.854;2024-02-26T03:02:53;1.60;;;1.60;;
3527;SDS011;1778;47.966;7.854;2024-02-26T03:03:55;2.10;;;2.00;;
3527;SDS011;1778;47.966;7.854;2024-02-26T03:04:56;2.23;;;2.23;;
3527;SDS011;1778;47.966;7.854;2024-02-26T03:05:58;1.90;;;1.90;;
3527;SDS011;1778;47.966;7.854;2024-02-26T03:07:00;2.23;;;2.23;;
3527;SDS011;1778;47.966;7.854;2024-02-26T03:08:01;2.00;;;2.00;;
3527;SDS011;1778;47.966;7.854;2024-02-26T03:09:03;2.20;;;2.17;;
3527;SDS011;1778;47.966;7.854;2024-02-26T03:10:05;2.07;;;2.07;;
3527;SDS011;1778;47.966;7.854;2024-02-26T03:11:07;1.70;;;1.70;;
3527;SDS011;1778;47.966;7.854;2024-02-26T03:12:08;2.37;;;2.20;;
3527;SDS011;1778;47.966;7.854;2024-02-26T03:13:10;2.13;;;2.13;;
3527;SDS011;1778;47.966;7.854;2024-02-26T03:14:12;2.70;;;2.30;;
3527;SDS011;1778;47.966;7.854;2024-02-26T03:15:13;2.37;;;2.37;;
3527;SDS011;1778;47.966;7.854;2024-02-26T03:16:16;2.37;;;2.37;;
3527;SDS011;1778;47.966;7.854;2024-02-26T03:17:18;2.20;;;2.20;;
3527;SDS011;1778;47.966;7.854;2024-02-26T03:18:20;2.30;;;2.30;;
3527;SDS011;1778;47.966;7.854;2024-02-26T03:19:23;2.37;;;2.37;;
3527;SDS011;1778;47.966;7.854;2024-02-26T03:20:27;2.63;;;2.63;;
3527;SDS011;1778;47.966;7.854;2024-02-26T03:21:28;2.70;;;2.70;;
3527;SDS011;1778;47.966;7.854;2024-02-26T03:22:30;2.47;;;2.47;;
3527;SDS011;1778;47.966;7.854;2024-02-26T03:23:32;2.23;;;2.23;;
3527;SDS011;1778;47.966;7.854;2024-02-26T03:24:37;2.33;;;2.33;;
3527;SDS011;1778;47.966;7.854;2024-02-26T03:25:39;2.47;;;2.47;;
3527;SDS011;1778;47.966;7.854;2024-02-26T03:26:41;2.33;;;2.33;;
3527;SDS011;1778;47.966;7.854;2024-02-26T03:27:42;3.53;;;2.80;;
3527;SDS011;1778;47.966;7.854;2024-02-26T03:28:43;2.63;;;2.63;;
3527;SDS011;1778;47.966;7.854;2024-02-26T03:29:45;2.87;;;2.70;;
3527;SDS011;1778;47.966;7.854;2024-02-26T03:30:46;3.00;;;3.00;;
3527;SDS011;1778;47.966;7.854;2024-02-26T03:31:48;2.70;;;2.70;;
3527;SDS011;1778;47.966;7.854;2024-02-26T03:32:50;3.23;;;3.13;;
3527;SDS011;1778;47.966;7.854;2024-02-26T03:33:51;2.80;;;2.80;;
3527;SDS011;1778;47.966;7.854;2024-02-26T03:34:53;2.87;;;2.73;;
3527;SDS011;1778;47.966;7.854;2024-02-26T03:35:57;3.03;;;3.03;;
3527;SDS011;1778;47.966;7.854;2024-02-26T03:36:58;2.67;;;2.67;;
3527;SDS011;1778;47.966;7.854;2024-02-26T03:38:00;3.27;;;3.27;;
3527;SDS011;1778;47.966;7.854;2024-02-26T03:39:01;2.93;;;2.93;;
3527;SDS011;1778;47.966;7.854;2024-02-26T03:40:06;2.70;;;2.70;;
3527;SDS011;1778;47.966;7.854;2024-02-26T03:41:08;3.40;;;3.30;;
3527;SDS011;1778;47.966;7.854;2024-02-26T03:42:09;3.17;;;3.17;;
3527;SDS011;1778;47.966;7.854;2024-02-26T03:43:21;3.17;;;3.17;;
3527;SDS011;1778;47.966;7.854;2024-02-26T03:44:23;2.97;;;2.97;;
3527;SDS011;1778;47.966;7.854;2024-02-26T03:45:24;3.17;;;3.17;;
3527;SDS011;1778;47.966;7.854;2024-02-26T03:46:26;2.93;;;2.93;;
3527;SDS011;1778;47.966;7.854;2024-02-26T03:47:28;2.77;;;2.77;;
3527;SDS011;1778;47.966;7.854;2024-02-26T03:48:30;3.17;;;2.97;;
3527;SDS011;1778;47.966;7.854;2024-02-26T03:49:31;2.87;;;2.87;;
3527;SDS011;1778;47.966;7.854;2024-02-26T03:50:33;3.40;;;3.20;;
3527;SDS011;1778;47.966;7.854;2024-02-26T03:51:35;2.80;;;2.80;;
3527;SDS011;1778;47.966;7.854;2024-02-26T03:52:38;3.50;;;3.50;;
3527;SDS011;1778;47.966;7.854;2024-02-26T03:53:39;3.43;;;3.43;;
3527;SDS011;1778;47.966;7.854;2024-02-26T03:54:41;3.27;;;3.17;;
3527;SDS011;1778;47.966;7.854;2024-02-26T03:55:42;3.20;;;3.20;;
3527;SDS011;1778;47.966;7.854;2024-02-26T03:56:43;2.90;;;2.90;;
3527;SDS011;1778;47.966;7.854;2024-02-26T03:57:45;3.63;;;3.33;;
3527;SDS011;1778;47.966;7.854;2024-02-26T03:58:46;3.30;;;3.30;;
3527;SDS011;1778;47.966;7.854;2024-02-26T03:59:48;3.60;;;3.53;;
3527;SDS011;1778;47.966;7.854;2024-02-26T04:00:49;3.27;;;3.27;;
3527;SDS011;1778;47.966;7.854;2024-02-26T04:01:51;3.43;;;3.43;;
3527;SDS011;1778;47.966;7.854;2024-02-26T04:02:52;3.57;;;3.57;;
3527;SDS011;1778;47.966;7.854;2024-02-26T04:03:54;4.00;;;3.90;;
3527;SDS011;1778;47.966;7.854;2024-02-26T04:04:56;3.50;;;3.20;;
3527;SDS011;1778;47.966;7.854;2024-02-26T04:05:57;3.60;;;3.50;;
3527;SDS011;1778;47.966;7.854;2024-02-26T04:06:59;3.00;;;3.00;;
3527;SDS011;1778;47.966;7.854;2024-02-26T04:08:00;3.33;;;3.33;;
3527;SDS011;1778;47.966;7.854;2024-02-26T04:09:02;3.33;;;3.33;;
3527;SDS011;1778;47.966;7.854;2024-02-26T04:10:08;3.13;;;3.13;;
3527;SDS011;1778;47.966;7.854;2024-02-26T04:11:10;3.83;;;3.73;;
3527;SDS011;1778;47.966;7.854;2024-02-26T04:12:12;3.57;;;3.57;;
3527;SDS011;1778;47.966;7.854;2024-02-26T04:13:13;3.10;;;3.10;;
3527;SDS011;1778;47.966;7.854;2024-02-26T04:14:15;3.57;;;3.47;;
3527;SDS011;1778;47.966;7.854;2024-02-26T04:15:16;3.47;;;3.47;;
3527;SDS011;1778;47.966;7.854;2024-02-26T04:16:18;3.67;;;3.57;;
3527;SDS011;1778;47.966;7.854;2024-02-26T04:17:20;4.03;;;3.93;;
3527;SDS011;1778;47.966;7.854;2024-02-26T04:18:22;3.80;;;3.70;;
3527;SDS011;1778;47.966;7.854;2024-02-26T04:19:23;3.87;;;3.77;;
3527;SDS011;1778;47.966;7.854;2024-02-26T04:20:25;3.43;;;3.43;;
3527;SDS011;1778;47.966;7.854;2024-02-26T04:21:26;5.70;;;3.63;;
3527;SDS011;1778;47.966;7.854;2024-02-26T04:22:28;3.73;;;3.63;;
3527;SDS011;1778;47.966;7.854;2024-02-26T04:23:29;3.67;;;3.67;;
3527;SDS011;1778;47.966;7.854;2024-02-26T04:24:31;3.70;;;3.50;;
3527;SDS011;1778;47.966;7.854;2024-02-26T04:25:32;3.63;;;3.63;;
3527;SDS011;1778;47.966;7.854;2024-02-26T04:26:34;4.00;;;4.00;;
3527;SDS011;1778;47.966;7.854;2024-02-26T04:27:35;3.70;;;3.70;;
3527;SDS011;1778;47.966;7.854;2024-02-26T04:28:37;4.13;;;4.03;;
3527;SDS011;1778;47.966;7.854;2024-02-26T04:29:39;3.70;;;3.70;;
3527;SDS011;1778;47.966;7.854;2024-02-26T04:30:41;3.87;;;3.77;;
3527;SDS011;1778;47.966;7.854;2024-02-26T04:31:42;3.80;;;3.70;;
3527;SDS011;1778;47.966;7.854;2024-02-26T04:32:44;3.73;;;3.73;;
3527;SDS011;1778;47.966;7.854;2024-02-26T04:33:46;3.83;;;3.83;;
3527;SDS011;1778;47.966;7.854;2024-02-26T04:34:47;3.60;;;3.57;;
3527;SDS011;1778;47.966;7.854;2024-02-26T04:35:49;3.73;;;3.73;;
3527;SDS011;1778;47.966;7.854;2024-02-26T04:36:50;3.57;;;3.57;;
3527;SDS011;1778;47.966;7.854;2024-02-26T04:37:52;3.23;;;3.23;;
3527;SDS011;1778;47.966;7.854;2024-02-26T04:38:53;3.67;;;3.67;;
3527;SDS011;1778;47.966;7.854;2024-02-26T04:40:00;3.43;;;3.43;;
3527;SDS011;1778;47.966;7.854;2024-02-26T04:41:03;3.23;;;3.23;;
3527;SDS011;1778;47.966;7.854;2024-02-26T04:42:05;3.60;;;3.50;;
3527;SDS011;1778;47.966;7.854;2024-02-26T04:43:07;3.80;;;3.60;;
3527;SDS011;1778;47.966;7.854;2024-02-26T04:44:08;3.83;;;3.83;;
3527;SDS011;1778;47.966;7.854;2024-02-26T04:45:09;3.57;;;3.47;;
3527;SDS011;1778;47.966;7.854;2024-02-26T04:46:11;3.57;;;3.57;;
3527;SDS011;1778;47.966;7.854;2024-02-26T04:47:13;3.57;;;3.50;;
3527;SDS011;1778;47.966;7.854;2024-02-26T04:48:15;4.13;;;3.90;;
3527;SDS011;1778;47.966;7.854;2024-02-26T04:49:16;3.97;;;3.97;;
3527;SDS011;1778;47.966;7.854;2024-02-26T04:50:18;3.67;;;3.67;;
3527;SDS011;1778;47.966;7.854;2024-02-26T04:51:19;3.67;;;3.67;;
3527;SDS011;1778;47.966;7.854;2024-02-26T04:52:21;3.77;;;3.67;;
3527;SDS011;1778;47.966;7.854;2024-02-26T04:53:23;4.10;;;4.00;;
3527;SDS011;1778;47.966;7.854;2024-02-26T04:54:24;3.73;;;3.73;;
3527;SDS011;1778;47.966;7.854;2024-02-26T04:55:26;4.00;;;3.90;;
3527;SDS011;1778;47.966;7.854;2024-02-26T04:56:28;3.77;;;3.77;;
3527;SDS011;1778;47.966;7.854;2024-02-26T04:57:29;3.97;;;3.63;;
3527;SDS011;1778;47.966;7.854;2024-02-26T04:58:31;4.00;;;4.00;;
3527;SDS011;1778;47.966;7.854;2024-02-26T04:59:32;4.20;;;4.10;;
3527;SDS011;1778;47.966;7.854;2024-02-26T05:00:33;4.30;;;4.30;;
3527;SDS011;1778;47.966;7.854;2024-02-26T05:01:35;4.27;;;4.17;;
3527;SDS011;1778;47.966;7.854;2024-02-26T05:02:37;3.83;;;3.83;;
3527;SDS011;1778;47.966;7.854;2024-02-26T05:03:39;4.33;;;4.23;;
3527;SDS011;1778;47.966;7.854;2024-02-26T05:04:41;4.13;;;4.03;;
3527;SDS011;1778;47.966;7.854;2024-02-26T05:05:43;4.10;;;4.10;;
3527;SDS011;1778;47.966;7.854;2024-02-26T05:06:44;3.97;;;3.93;;
3527;SDS011;1778;47.966;7.854;2024-02-26T05:07:46;3.80;;;3.80;;
3527;SDS011;1778;47.966;7.854;2024-02-26T05:08:48;4.00;;;3.90;;
3527;SDS011;1778;47.966;7.854;2024-02-26T05:09:49;4.10;;;4.00;;
3527;SDS011;1778;47.966;7.854;2024-02-26T05:10:51;3.90;;;3.90;;
3527;SDS011;1778;47.966;7.854;2024-02-26T05:11:52;4.50;;;4.30;;
3527;SDS011;1778;47.966;7.854;2024-02-26T05:12:54;6.63;;;4.13;;
3527;SDS011;1778;47.966;7.854;2024-02-26T05:13:55;3.57;;;3.57;;
3527;SDS011;1778;47.966;7.854;2024-02-26T05:14:57;4.40;;;4.30;;
3527;SDS011;1778;47.966;7.854;2024-02-26T05:16:00;3.83;;;3.83;;
3527;SDS011;1778;47.966;7.854;2024-02-26T05:17:01;4.00;;;4.00;;
3527;SDS011;1778;47.966;7.854;2024-02-26T05:18:03;4.57;;;4.47;;
3527;SDS011;1778;47.966;7.854;2024-02-26T05:19:05;4.37;;;4.17;;
3527;SDS011;1778;47.966;7.854;2024-02-26T05:20:07;4.17;;;4.17;;
3527;SDS011;1778;47.966;7.854;2024-02-26T05:21:09;4.80;;;4.70;;
3527;SDS011;1778;47.966;7.854;2024-02-26T05:22:10;4.00;;;4.00;;
3527;SDS011;1778;47.966;7.854;2024-02-26T05:23:12;4.33;;;4.23;;
3527;SDS011;1778;47.966;7.854;2024-02-26T05:24:13;4.43;;;4.40;;
3527;SDS011;1778;47.966;7.854;2024-02-26T05:25:16;3.93;;;3.93;;
3527;SDS011;1778;47.966;7.854;2024-02-26T05:26:21;4.60;;;4.50;;
3527;SDS011;1778;47.966;7.854;2024-02-26T05:27:23;4.27;;;4.27;;
3527;SDS011;1778;47.966;7.854;2024-02-26T05:28:25;4.10;;;4.10;;
3527;SDS011;1778;47.966;7.854;2024-02-26T05:29:26;4.40;;;4.30;;
3527;SDS011;1778;47.966;7.854;2024-02-26T05:30:28;4.50;;;4.40;;
3527;SDS011;1778;47.966;7.854;2024-02-26T05:31:30;4.90;;;4.80;;
3527;SDS011;1778;47.966;7.854;2024-02-26T05:32:31;5.03;;;4.93;;
3527;SDS011;1778;47.966;7.854;2024-02-26T05:33:32;4.67;;;4.57;;
3527;SDS011;1778;47.966;7.854;2024-02-26T05:34:34;4.87;;;4.77;;
3527;SDS011;1778;47.966;7.854;2024-02-26T05:35:36;4.20;;;4.17;;
3527;SDS011;1778;47.966;7.854;2024-02-26T05:36:38;4.70;;;4.60;;
3527;SDS011;1778;47.966;7.854;2024-02-26T05:37:40;4.00;;;4.00;;
3527;SDS011;1778;47.966;7.854;2024-02-26T05:38:41;4.53;;;4.43;;
3527;SDS011;1778;47.966;7.854;2024-02-26T05:39:43;4.70;;;4.60;;
3527;SDS011;1778;47.966;7.854;2024-02-26T05:40:44;5.07;;;4.97;;
3527;SDS011;1778;47.966;7.854;2024-02-26T05:41:46;5.43;;;5.27;;
3527;SDS011;1778;47.966;7.854;2024-02-26T05:42:48;4.27;;;4.27;;
3527;SDS011;1778;47.966;7.854;2024-02-26T05:43:50;4.60;;;4.50;;
3527;SDS011;1778;47.966;7.854;2024-02-26T05:44:52;5.13;;;5.03;;
3527;SDS011;1778;47.966;7.854;2024-02-26T05:45:53;5.03;;;4.93;;
3527;SDS011;1778;47.966;7.854;2024-02-26T05:46:55;7.40;;;5.73;;
3527;SDS011;1778;47.966;7.854;2024-02-26T05:47:56;5.13;;;5.03;;
3527;SDS011;1778;47.966;7.854;2024-02-26T05:48:58;5.30;;;5.10;;
3527;SDS011;1778;47.966;7.854;2024-02-26T05:49:59;5.67;;;5.57;;
3527;SDS011;1778;47.966;7.854;2024-02-26T05:51:01;5.77;;;5.57;;
3527;SDS011;1778;47.966;7.854;2024-02-26T05:52:04;5.27;;;5.17;;
3527;SDS011;1778;47.966;7.854;2024-02-26T05:53:06;5.07;;;4.97;;
3527;SDS011;1778;47.966;7.854;2024-02-26T05:54:08;5.47;;;5.37;;
3527;SDS011;1778;47.966;7.854;2024-02-26T05:55:11;5.60;;;5.50;;
3527;SDS011;1778;47.966;7.854;2024-02-26T05:56:13;5.40;;;5.30;;
3527;SDS011;1778;47.966;7.854;2024-02-26T05:57:15;5.53;;;5.43;;
3527;SDS011;1778;47.966;7.854;2024-02-26T05:58:17;5.97;;;5.67;;
3527;SDS011;1778;47.966;7.854;2024-02-26T05:59:19;5.20;;;5.10;;
3527;SDS011;1778;47.966;7.854;2024-02-26T06:00:21;5.47;;;5.37;;
3527;SDS011;1778;47.966;7.854;2024-02-26T06:01:23;5.60;;;5.50;;
3527;SDS011;1778;47.966;7.854;2024-02-26T06:02:25;5.17;;;5.07;;
3527;SDS011;1778;47.966;7.854;2024-02-26T06:03:27;5.20;;;5.10;;
3527;SDS011;1778;47.966;7.854;2024-02-26T06:04:29;5.47;;;5.27;;
3527;SDS011;1778;47.966;7.854;2024-02-26T06:05:31;5.20;;;5.00;;
3527;SDS011;1778;47.966;7.854;2024-02-26T06:06:32;5.60;;;5.30;;
3527;SDS011;1778;47.966;7.854;2024-02-26T06:07:34;5.70;;;5.40;;
3527;SDS011;1778;47.966;7.854;2024-02-26T06:08:36;4.73;;;4.67;;
3527;SDS011;1778;47.966;7.854;2024-02-26T06:09:38;4.83;;;4.73;;
3527;SDS011;1778;47.966;7.854;2024-02-26T06:10:40;5.50;;;5.33;;
3527;SDS011;1778;47.966;7.854;2024-02-26T06:11:42;5.03;;;4.93;;
3527;SDS011;1778;47.966;7.854;2024-02-26T06:12:44;4.87;;;4.77;;
3527;SDS011;1778;47.966;7.854;2024-02-26T06:13:45;4.83;;;4.73;;
3527;SDS011;1778;47.966;7.854;2024-02-26T06:14:47;4.97;;;4.87;;
3527;SDS011;1778;47.966;7.854;2024-02-26T06:15:48;6.03;;;4.90;;
3527;SDS011;1778;47.966;7.854;2024-02-26T06:16:50;4.73;;;4.63;;
3527;SDS011;1778;47.966;7.854;2024-02-26T06:17:52;4.60;;;4.50;;
3527;SDS011;1778;47.966;7.854;2024-02-26T06:18:53;4.53;;;4.43;;
3527;SDS011;1778;47.966;7.854;2024-02-26T06:19:55;4.87;;;4.77;;
3527;SDS011;1778;47.966;7.854;2024-02-26T06:20:57;4.70;;;4.60;;
3527;SDS011;1778;47.966;7.854;2024-02-26T06:21:59;5.23;;;5.03;;
3527;SDS011;1778;47.966;7.854;2024-02-26T06:23:00;5.00;;;4.90;;
3527;SDS011;1778;47.966;7.854;2024-02-26T06:24:02;4.90;;;4.80;;